createdAt,value
2018-04-15T00:00:18.694Z,85.16
2018-04-15T00:01:22.937Z,85.04
2018-04-15T00:02:27.072Z,84.98
2018-04-15T00:03:31.201Z,85.04
2018-04-15T00:04:35.351Z,85.09
2018-04-15T00:05:39.569Z,85.08
2018-04-15T00:06:43.715Z,85.18
2018-04-15T00:07:47.854Z,85.19
2018-04-15T00:08:52.321Z,85.24
2018-04-15T00:09:56.604Z,85.37
2018-04-15T00:11:00.844Z,85.52
2018-04-15T00:12:05.345Z,85.69
2018-04-15T00:13:09.509Z,85.78
2018-04-15T00:14:13.761Z,85.89
2018-04-15T00:15:18.185Z,85.96
2018-04-15T00:16:22.509Z,85.99
2018-04-15T00:17:26.649Z,86.05
2018-04-15T00:18:31.111Z,85.95
2018-04-15T00:19:35.249Z,85.95
2018-04-15T00:20:39.499Z,86.01
2018-04-15T00:21:43.751Z,86.16
2018-04-15T00:22:48.130Z,86.17
2018-04-15T00:23:52.274Z,86.20
2018-04-15T00:24:56.813Z,86.20
2018-04-15T00:26:00.944Z,86.25
2018-04-15T00:27:06.068Z,86.45
2018-04-15T00:28:10.297Z,86.65
2018-04-15T00:29:14.466Z,86.72
2018-04-15T00:30:18.789Z,86.62
2018-04-15T00:31:22.946Z,86.48
2018-04-15T00:32:27.087Z,86.49
2018-04-15T00:33:31.227Z,86.53
2018-04-15T00:34:35.461Z,86.59
2018-04-15T00:35:39.622Z,86.69
2018-04-15T00:36:43.747Z,86.74
2018-04-15T00:37:48.233Z,86.87
2018-04-15T00:38:52.361Z,86.96
2018-04-15T00:39:56.590Z,87.00
2018-04-15T00:41:00.738Z,87.06
2018-04-15T00:42:04.859Z,87.15
2018-04-15T00:43:09.438Z,87.19
2018-04-15T00:44:13.920Z,87.18
2018-04-15T00:45:18.547Z,87.19
2018-04-15T00:46:22.688Z,87.20
2018-04-15T00:47:27.181Z,87.22
2018-04-15T00:48:31.499Z,87.25
2018-04-15T00:49:35.699Z,87.37
2018-04-15T00:50:41.215Z,87.37
2018-04-15T00:51:45.623Z,87.33
2018-04-15T00:52:49.749Z,87.29
2018-04-15T00:54:03.649Z,87.24
2018-04-15T00:55:07.762Z,87.12
2018-04-15T00:56:11.976Z,87.13
2018-04-15T00:57:16.117Z,87.18
2018-04-15T00:58:20.254Z,87.20
2018-04-15T00:59:24.401Z,87.29
2018-04-15T01:00:28.962Z,87.33
2018-04-15T01:01:33.110Z,87.33
2018-04-15T01:02:37.267Z,87.28
2018-04-15T01:03:41.684Z,87.29
2018-04-15T01:04:45.856Z,87.42
2018-04-15T01:05:50.080Z,87.47
2018-04-15T01:06:54.611Z,87.35
2018-04-15T01:07:59.291Z,87.25
2018-04-15T01:09:04.431Z,87.13
2018-04-15T01:10:08.767Z,87.10
2018-04-15T01:11:13.284Z,87.11
2018-04-15T01:12:17.757Z,87.21
2018-04-15T01:13:22.736Z,87.31
2018-04-15T01:14:27.155Z,87.28
2018-04-15T01:15:31.635Z,87.28
2018-04-15T01:16:35.843Z,87.36
2018-04-15T01:17:40.033Z,87.34
2018-04-15T01:18:44.165Z,87.33
2018-04-15T01:19:48.957Z,87.19
2018-04-15T01:20:53.389Z,87.14
2018-04-15T01:21:57.573Z,87.08
2018-04-15T01:23:02.373Z,86.99
2018-04-15T01:24:06.551Z,86.95
2018-04-15T01:25:10.680Z,86.91
2018-04-15T01:26:15.126Z,86.95
2018-04-15T01:27:19.250Z,87.02
2018-04-15T01:28:23.460Z,87.04
2018-04-15T01:29:27.618Z,87.00
2018-04-15T01:30:32.259Z,87.00
2018-04-15T01:31:36.392Z,87.12
2018-04-15T01:32:40.534Z,87.17
2018-04-15T01:33:44.759Z,87.26
2018-04-15T01:34:48.948Z,87.34
2018-04-15T01:35:53.091Z,87.46
2018-04-15T01:36:58.683Z,87.56
2018-04-15T01:38:02.914Z,87.61
2018-04-15T01:39:07.425Z,87.63
2018-04-15T01:40:11.923Z,87.71
2018-04-15T01:41:16.391Z,87.75
2018-04-15T01:42:20.761Z,87.78
2018-04-15T01:43:25.567Z,87.77
2018-04-15T01:44:29.796Z,87.69
2018-04-15T01:45:34.199Z,87.66
2018-04-15T01:46:38.598Z,87.64
2018-04-15T01:47:43.085Z,87.58
2018-04-15T01:48:47.524Z,87.59
2018-04-15T01:49:52.366Z,87.66
2018-04-15T01:50:57.469Z,87.67
2018-04-15T01:52:01.656Z,87.61
2018-04-15T01:53:06.200Z,87.50
2018-04-15T01:54:10.686Z,87.30
2018-04-15T01:55:15.500Z,87.08
2018-04-15T01:56:19.724Z,87.00
2018-04-15T01:57:24.236Z,86.98
2018-04-15T01:58:28.377Z,86.96
2018-04-15T01:59:32.730Z,86.98
2018-04-15T02:00:37.301Z,87.06
2018-04-15T02:01:41.725Z,87.12
2018-04-15T02:02:45.865Z,87.21
2018-04-15T02:03:49.993Z,87.25
2018-04-15T02:04:54.256Z,87.38
2018-04-15T02:05:59.026Z,87.43
2018-04-15T02:07:03.170Z,87.43
2018-04-15T02:08:07.846Z,87.51
2018-04-15T02:09:12.014Z,87.60
2018-04-15T02:10:16.253Z,87.67
2018-04-15T02:11:20.371Z,87.70
2018-04-15T02:12:24.512Z,87.67
2018-04-15T02:13:28.767Z,87.61
2018-04-15T02:14:33.217Z,87.58
2018-04-15T02:15:37.741Z,87.61
2018-04-15T02:16:41.937Z,87.61
2018-04-15T02:17:46.087Z,87.67
2018-04-15T02:18:50.341Z,87.69
2018-04-15T02:19:54.443Z,87.67
2018-04-15T02:20:58.648Z,87.69
2018-04-15T02:22:02.783Z,87.60
2018-04-15T02:23:07.787Z,87.46
2018-04-15T02:24:11.921Z,87.36
2018-04-15T02:25:16.919Z,87.37
2018-04-15T02:26:21.466Z,87.44
2018-04-15T02:27:25.583Z,87.53
2018-04-15T02:28:29.703Z,87.62
2018-04-15T02:29:33.919Z,87.74
2018-04-15T02:30:38.368Z,87.86
2018-04-15T02:31:42.817Z,87.99
2018-04-15T02:32:47.215Z,88.12
2018-04-15T02:33:51.406Z,88.20
2018-04-15T02:34:55.577Z,88.22
2018-04-15T02:35:59.712Z,88.26
2018-04-15T02:37:03.866Z,88.33
2018-04-15T02:38:08.871Z,88.38
2018-04-15T02:39:14.157Z,88.50
2018-04-15T02:40:18.289Z,88.56
2018-04-15T02:41:22.609Z,88.61
2018-04-15T02:42:26.827Z,88.67
2018-04-15T02:43:31.051Z,88.73
2018-04-15T02:44:35.187Z,88.72
2018-04-15T02:45:40.147Z,88.75
2018-04-15T02:46:44.369Z,88.83
2018-04-15T02:47:48.545Z,88.85
2018-04-15T02:48:52.926Z,88.81
2018-04-15T02:49:57.423Z,88.64
2018-04-15T02:51:01.915Z,88.41
2018-04-15T02:52:06.883Z,88.16
2018-04-15T02:53:11.319Z,87.88
2018-04-15T02:54:15.891Z,87.70
2018-04-15T02:55:21.041Z,87.56
2018-04-15T02:56:25.812Z,87.41
2018-04-15T02:57:29.940Z,87.42
2018-04-15T02:58:34.281Z,87.37
2018-04-15T02:59:39.061Z,87.36
2018-04-15T03:00:43.826Z,87.30
2018-04-15T03:01:47.940Z,87.24
2018-04-15T03:02:52.140Z,87.18
2018-04-15T03:03:56.321Z,87.10
2018-04-15T03:05:00.772Z,87.01
2018-04-15T03:06:04.910Z,86.99
2018-04-15T03:07:09.166Z,86.96
2018-04-15T03:08:13.316Z,86.94
2018-04-15T03:09:17.520Z,86.87
2018-04-15T03:10:21.734Z,86.84
2018-04-15T03:11:26.199Z,86.80
2018-04-15T03:12:30.416Z,86.81
2018-04-15T03:13:34.552Z,86.93
2018-04-15T03:14:38.778Z,87.09
2018-04-15T03:15:43.195Z,87.10
2018-04-15T03:16:47.329Z,87.18
2018-04-15T03:17:51.769Z,87.22
2018-04-15T03:18:56.295Z,87.34
2018-04-15T03:20:00.765Z,87.60
2018-04-15T03:21:04.937Z,87.80
2018-04-15T03:22:09.069Z,87.99
2018-04-15T03:23:13.313Z,88.22
2018-04-15T03:24:19.681Z,88.33
2018-04-15T03:25:24.265Z,88.61
2018-04-15T03:26:28.696Z,88.66
2018-04-15T03:27:33.235Z,88.66
2018-04-15T03:28:37.635Z,88.72
2018-04-15T03:29:42.092Z,88.73
2018-04-15T03:31:52.505Z,88.85
2018-04-15T03:32:56.712Z,89.04
2018-04-15T03:34:00.887Z,89.17
2018-04-15T03:35:05.113Z,89.35
2018-04-15T03:36:09.245Z,89.41
2018-04-15T03:37:13.755Z,89.39
2018-04-15T03:38:19.425Z,89.39
2018-04-15T03:39:23.810Z,89.40
2018-04-15T03:40:28.167Z,89.49
2018-04-15T03:41:32.306Z,89.66
2018-04-15T03:42:36.882Z,89.82
2018-04-15T03:43:41.450Z,90.03
2018-04-15T03:44:46.114Z,90.04
2018-04-15T03:45:50.830Z,89.98
2018-04-15T03:46:55.383Z,90.06
2018-04-15T03:47:59.506Z,90.09
2018-04-15T03:49:03.661Z,90.01
2018-04-15T03:50:07.800Z,89.93
2018-04-15T03:51:11.998Z,89.82
2018-04-15T03:52:16.497Z,89.73
2018-04-15T03:53:20.706Z,89.61
2018-04-15T03:54:24.888Z,89.47
2018-04-15T03:55:29.006Z,89.33
2018-04-15T03:56:33.157Z,89.22
2018-04-15T03:57:37.689Z,89.21
2018-04-15T03:58:41.833Z,89.23
2018-04-15T03:59:45.944Z,89.29
2018-04-15T04:00:50.866Z,89.30
2018-04-15T04:01:55.547Z,89.25
2018-04-15T04:02:59.741Z,89.16
2018-04-15T04:04:04.213Z,88.98
2018-04-15T04:05:08.365Z,88.86
2018-04-15T04:06:12.498Z,88.81
2018-04-15T04:07:16.709Z,88.82
2018-04-15T04:08:20.853Z,88.86
2018-04-15T04:09:25.041Z,88.94
2018-04-15T04:10:30.569Z,89.05
2018-04-15T04:11:34.721Z,89.13
2018-04-15T04:12:38.977Z,89.23
2018-04-15T04:13:43.214Z,89.27
2018-04-15T04:14:47.380Z,89.35
2018-04-15T04:15:51.785Z,89.42
2018-04-15T04:16:56.325Z,89.47
2018-04-15T04:20:18.240Z,89.52
2018-04-15T04:25:42.701Z,89.70
2018-04-15T04:26:46.971Z,89.81
2018-04-15T04:27:51.390Z,89.87
2018-04-15T04:28:55.529Z,89.90
2018-04-15T04:29:59.751Z,89.92
2018-04-15T04:31:04.056Z,89.90
2018-04-15T04:32:08.201Z,89.93
2018-04-15T04:33:12.415Z,89.92
2018-04-15T04:34:16.897Z,89.97
2018-04-15T04:35:21.543Z,90.00
2018-04-15T04:36:26.456Z,90.00
2018-04-15T04:37:30.797Z,90.00
2018-04-15T04:38:35.047Z,90.00
2018-04-15T04:39:39.519Z,89.93
2018-04-15T04:40:44.473Z,89.91
2018-04-15T04:41:48.781Z,89.90
2018-04-15T04:42:53.443Z,89.87
2018-04-15T04:43:57.549Z,89.86
2018-04-15T04:45:03.716Z,89.82
2018-04-15T04:46:08.165Z,89.79
2018-04-15T04:47:12.529Z,89.80
2018-04-15T04:48:16.687Z,89.77
2018-04-15T04:49:21.831Z,89.71
2018-04-15T04:50:27.109Z,89.64
2018-04-15T04:51:31.551Z,89.58
2018-04-15T04:52:36.031Z,89.51
2018-04-15T04:53:40.866Z,89.47
2018-04-15T04:54:45.261Z,89.44
2018-04-15T04:55:49.635Z,89.41
2018-04-15T04:56:53.769Z,89.37
2018-04-15T04:57:58.069Z,89.25
2018-04-15T04:59:02.648Z,88.97
2018-04-15T05:00:08.073Z,88.83
2018-04-15T05:01:12.236Z,88.58
2018-04-15T05:02:16.501Z,88.31
2018-04-15T05:03:20.838Z,88.16
2018-04-15T05:04:25.930Z,88.13
2018-04-15T05:05:30.361Z,88.09
2018-04-15T05:06:34.831Z,88.10
2018-04-15T05:07:39.197Z,88.05
2018-04-15T05:08:43.363Z,87.97
2018-04-15T05:09:47.585Z,87.90
2018-04-15T05:10:51.737Z,87.83
2018-04-15T05:11:57.207Z,87.62
2018-04-15T05:13:01.344Z,87.35
2018-04-15T05:14:05.524Z,87.13
2018-04-15T05:15:09.975Z,86.96
2018-04-15T05:16:14.127Z,86.92
2018-04-15T05:17:18.310Z,86.89
2018-04-15T05:18:22.933Z,86.74
2018-04-15T05:19:27.152Z,86.42
2018-04-15T05:20:31.357Z,86.26
2018-04-15T05:21:35.808Z,85.89
2018-04-15T05:22:40.226Z,85.49
2018-04-15T05:23:44.725Z,85.50
2018-04-15T05:24:49.763Z,85.42
2018-04-15T05:25:54.269Z,85.09
2018-04-15T05:26:58.760Z,84.99
2018-04-15T05:28:03.181Z,85.11
2018-04-15T05:29:07.603Z,84.96
2018-04-15T05:30:13.499Z,84.89
2018-04-15T05:31:18.525Z,84.49
2018-04-15T05:32:23.438Z,84.68
2018-04-15T05:33:28.178Z,84.61
2018-04-15T05:34:32.688Z,84.48
2018-04-15T05:35:36.827Z,84.71
2018-04-15T05:36:40.955Z,84.85
2018-04-15T05:37:45.593Z,84.84
2018-04-15T05:38:49.783Z,85.09
2018-04-15T05:39:53.945Z,85.39
2018-04-15T05:40:58.059Z,85.59
2018-04-15T05:42:02.177Z,85.73
2018-04-15T05:43:06.769Z,85.79
2018-04-15T05:44:11.987Z,85.71
2018-04-15T05:45:16.488Z,85.51
2018-04-15T05:46:21.999Z,85.29
2018-04-15T05:47:28.165Z,85.21
2018-04-15T05:48:32.629Z,85.05
2018-04-15T05:49:36.781Z,84.94
2018-04-15T05:50:41.212Z,84.78
2018-04-15T05:51:45.835Z,84.58
2018-04-15T05:52:49.997Z,84.29
2018-04-15T05:53:54.139Z,84.13
2018-04-15T05:54:58.385Z,84.37
2018-04-15T05:56:02.665Z,84.66
2018-04-15T05:57:07.085Z,84.74
2018-04-15T05:58:11.309Z,84.96
2018-04-15T05:59:15.429Z,85.13
2018-04-15T06:00:20.388Z,85.29
2018-04-15T06:01:25.580Z,85.36
2018-04-15T06:02:30.123Z,85.51
2018-04-15T06:03:34.248Z,85.81
2018-04-15T06:04:38.525Z,85.85
2018-04-15T06:05:42.685Z,86.19
2018-04-15T06:06:46.821Z,86.10
2018-04-15T06:07:51.061Z,86.19
2018-04-15T06:08:56.563Z,86.30
2018-04-15T06:10:00.716Z,86.51
2018-04-15T06:11:04.837Z,86.57
2018-04-15T06:12:09.058Z,86.78
2018-04-15T06:13:13.226Z,86.93
2018-04-15T06:14:17.367Z,87.03
2018-04-15T06:15:21.835Z,87.18
2018-04-15T06:16:26.055Z,87.27
2018-04-15T06:17:30.279Z,87.28
2018-04-15T06:18:34.406Z,87.34
2018-04-15T06:19:38.662Z,87.26
2018-04-15T06:20:43.164Z,87.29
2018-04-15T06:21:47.391Z,87.38
2018-04-15T06:22:51.545Z,87.45
2018-04-15T06:23:55.793Z,87.59
2018-04-15T06:24:59.927Z,87.54
2018-04-15T06:26:04.177Z,87.46
2018-04-15T06:27:08.718Z,87.43
2018-04-15T06:28:12.881Z,87.49
2018-04-15T06:29:17.015Z,87.62
2018-04-15T06:30:22.438Z,87.68
2018-04-15T06:31:26.621Z,87.75
2018-04-15T06:32:30.759Z,87.71
2018-04-15T06:33:35.263Z,87.35
2018-04-15T06:34:39.479Z,87.23
2018-04-15T06:35:43.713Z,87.09
2018-04-15T06:36:47.914Z,87.02
2018-04-15T06:37:52.063Z,86.97
2018-04-15T06:38:56.189Z,86.97
2018-04-15T06:40:00.781Z,86.59
2018-04-15T06:41:04.933Z,86.64
2018-04-15T06:42:09.164Z,86.56
2018-04-15T06:43:13.414Z,86.46
2018-04-15T06:44:17.626Z,86.54
2018-04-15T06:45:22.175Z,86.67
2018-04-15T06:46:26.724Z,86.81
2018-04-15T06:47:31.145Z,87.01
2018-04-15T06:48:35.683Z,87.13
2018-04-15T06:49:39.875Z,87.26
2018-04-15T06:50:44.009Z,87.29
2018-04-15T06:51:48.748Z,87.22
2018-04-15T06:52:53.118Z,87.31
2018-04-15T06:53:57.406Z,87.25
2018-04-15T06:55:01.675Z,87.05
2018-04-15T06:56:05.900Z,86.78
2018-04-15T06:57:10.053Z,86.71
2018-04-15T06:58:14.215Z,86.78
2018-04-15T06:59:18.900Z,86.90
2018-04-15T07:00:23.276Z,87.09
2018-04-15T07:01:27.472Z,87.24
2018-04-15T07:02:32.270Z,87.22
2018-04-15T07:03:36.556Z,87.14
2018-04-15T07:04:41.044Z,87.02
2018-04-15T07:05:45.304Z,86.89
2018-04-15T07:06:49.493Z,86.86
2018-04-15T07:07:53.677Z,87.08
2018-04-15T07:08:57.824Z,87.09
2018-04-15T07:10:02.051Z,87.12
2018-04-15T07:11:06.678Z,87.28
2018-04-15T07:12:10.854Z,87.10
2018-04-15T07:13:15.066Z,87.16
2018-04-15T07:14:19.272Z,87.21
2018-04-15T07:15:24.902Z,87.03
2018-04-15T07:16:29.089Z,87.12
2018-04-15T07:17:33.421Z,87.45
2018-04-15T07:18:37.668Z,87.55
2018-04-15T07:19:41.902Z,87.66
2018-04-15T07:20:46.062Z,87.68
2018-04-15T07:21:50.221Z,87.54
2018-04-15T07:22:54.719Z,87.42
2018-04-15T07:23:58.935Z,87.49
2018-04-15T07:25:03.131Z,87.57
2018-04-15T07:26:07.294Z,87.59
2018-04-15T07:27:11.453Z,87.60
2018-04-15T07:28:15.962Z,87.71
2018-04-15T07:29:20.187Z,87.84
2018-04-15T07:30:25.194Z,87.77
2018-04-15T07:31:30.252Z,87.74
2018-04-15T07:32:34.480Z,87.70
2018-04-15T07:33:38.667Z,87.84
2018-04-15T07:34:43.230Z,88.00
2018-04-15T07:35:47.475Z,88.08
2018-04-15T07:36:51.659Z,87.89
2018-04-15T07:37:55.892Z,87.62
2018-04-15T07:39:00.149Z,87.58
2018-04-15T07:40:04.337Z,87.76
2018-04-15T07:41:08.851Z,87.89
2018-04-15T07:42:13.019Z,87.90
2018-04-15T07:43:17.193Z,87.86
2018-04-15T07:44:21.564Z,88.02
2018-04-15T07:45:26.501Z,88.11
2018-04-15T07:46:31.435Z,88.22
2018-04-15T07:47:35.988Z,88.31
2018-04-15T07:48:40.149Z,88.35
2018-04-15T07:49:44.296Z,88.52
2018-04-15T07:50:48.573Z,88.47
2018-04-15T07:51:52.721Z,88.24
2018-04-15T07:52:56.849Z,88.40
2018-04-15T07:54:01.026Z,88.47
2018-04-15T07:55:05.182Z,88.79
2018-04-15T07:56:09.495Z,88.67
2018-04-15T07:57:13.665Z,88.33
2018-04-15T07:58:17.920Z,88.27
2018-04-15T07:59:22.054Z,88.18
2018-04-15T08:00:27.096Z,88.05
2018-04-15T08:01:31.358Z,87.97
2018-04-15T08:02:35.531Z,88.14
2018-04-15T08:03:40.056Z,88.04
2018-04-15T08:04:44.346Z,87.95
2018-04-15T08:05:48.523Z,88.04
2018-04-15T08:06:52.783Z,87.82
2018-04-15T08:07:56.953Z,87.70
2018-04-15T08:09:01.168Z,87.86
2018-04-15T08:10:05.685Z,87.81
2018-04-15T08:11:09.934Z,87.65
2018-04-15T08:12:14.317Z,87.68
2018-04-15T08:13:18.615Z,87.56
2018-04-15T08:14:22.873Z,87.46
2018-04-15T08:15:27.842Z,87.17
2018-04-15T08:16:32.296Z,87.30
2018-04-15T08:17:36.431Z,87.70
2018-04-15T08:18:40.694Z,87.79
2018-04-15T08:19:44.909Z,87.90
2018-04-15T08:20:49.134Z,87.99
2018-04-15T08:21:53.309Z,87.89
2018-04-15T08:22:58.003Z,87.57
2018-04-15T08:24:02.284Z,87.46
2018-04-15T08:25:06.832Z,87.06
2018-04-15T08:26:11.608Z,86.98
2018-04-15T08:27:15.864Z,87.10
2018-04-15T08:28:20.055Z,87.03
2018-04-15T08:29:24.301Z,86.65
2018-04-15T08:30:28.692Z,86.60
2018-04-15T08:31:32.868Z,86.61
2018-04-15T08:32:37.009Z,86.53
2018-04-15T08:33:41.166Z,86.55
2018-04-15T08:34:45.440Z,86.64
2018-04-15T08:35:49.949Z,86.77
2018-04-15T08:36:54.196Z,87.04
2018-04-15T08:37:58.425Z,87.13
2018-04-15T08:39:02.695Z,86.91
2018-04-15T08:40:06.929Z,86.44
2018-04-15T08:41:11.858Z,86.22
2018-04-15T08:42:16.363Z,86.27
2018-04-15T08:43:21.224Z,86.58
2018-04-15T08:44:25.533Z,86.59
2018-04-15T08:45:30.904Z,86.78
2018-04-15T08:46:35.068Z,87.01
2018-04-15T08:47:39.315Z,87.14
2018-04-15T08:48:43.471Z,87.13
2018-04-15T08:49:47.641Z,86.93
2018-04-15T08:50:51.877Z,86.70
2018-04-15T08:51:56.085Z,86.54
2018-04-15T08:53:00.331Z,86.43
2018-04-15T08:54:04.486Z,86.54
2018-04-15T08:55:08.737Z,86.89
2018-04-15T08:56:12.875Z,86.91
2018-04-15T08:57:17.441Z,86.93
2018-04-15T08:58:21.749Z,86.55
2018-04-15T08:59:25.920Z,86.41
2018-04-15T09:00:31.907Z,86.41
2018-04-15T09:01:36.351Z,86.52
2018-04-15T09:02:40.874Z,86.54
2018-04-15T09:03:45.057Z,86.56
2018-04-15T09:04:49.388Z,86.50
2018-04-15T09:05:53.543Z,86.51
2018-04-15T09:06:58.019Z,86.45
2018-04-15T09:08:02.190Z,86.31
2018-04-15T09:09:07.372Z,85.56
2018-04-15T09:10:11.621Z,85.62
2018-04-15T09:11:15.785Z,85.56
2018-04-15T09:12:20.030Z,85.53
2018-04-15T09:13:24.484Z,85.79
2018-04-15T09:14:28.789Z,85.75
2018-04-15T09:15:34.366Z,85.54
2018-04-15T09:16:39.418Z,85.37
2018-04-15T09:17:43.576Z,85.49
2018-04-15T09:18:47.742Z,84.97
2018-04-15T09:19:51.998Z,84.35
2018-04-15T09:20:56.195Z,84.98
2018-04-15T09:22:00.454Z,85.43
2018-04-15T09:23:04.654Z,84.94
2018-04-15T09:24:08.824Z,85.08
2018-04-15T09:25:13.142Z,85.22
2018-04-15T09:26:17.618Z,85.33
2018-04-15T09:27:21.758Z,85.38
2018-04-15T09:28:25.940Z,85.42
2018-04-15T09:29:30.771Z,85.28
2018-04-15T09:30:39.142Z,85.32
2018-04-15T09:31:43.586Z,85.47
2018-04-15T09:32:48.161Z,85.37
2018-04-15T09:33:52.384Z,85.11
2018-04-15T09:34:56.684Z,85.04
2018-04-15T09:36:00.876Z,84.45
2018-04-15T09:37:05.168Z,83.65
2018-04-15T09:38:09.353Z,83.79
2018-04-15T09:39:13.564Z,83.89
2018-04-15T09:40:17.747Z,83.74
2018-04-15T09:41:21.939Z,83.77
2018-04-15T09:42:26.273Z,83.23
2018-04-15T09:43:31.565Z,83.12
2018-04-15T09:44:36.906Z,82.60
2018-04-15T09:45:41.472Z,82.57
2018-04-15T09:46:45.788Z,82.53
2018-04-15T09:47:49.981Z,82.18
2018-04-15T09:48:54.127Z,82.40
2018-04-15T09:49:58.435Z,82.91
2018-04-15T09:51:02.930Z,82.68
2018-04-15T09:52:07.231Z,82.69
2018-04-15T09:53:11.453Z,82.99
2018-04-15T09:54:15.661Z,82.89
2018-04-15T09:55:19.969Z,82.67
2018-04-15T09:56:24.229Z,81.85
2018-04-15T09:57:28.750Z,81.83
2018-04-15T09:58:33.482Z,82.17
2018-04-15T09:59:37.781Z,82.42
2018-04-15T10:00:42.772Z,82.43
2018-04-15T10:01:47.052Z,82.23
2018-04-15T10:02:51.223Z,82.39
2018-04-15T10:03:55.710Z,81.96
2018-04-15T10:04:59.974Z,81.83
2018-04-15T10:06:04.136Z,81.55
2018-04-15T10:07:08.298Z,81.12
2018-04-15T10:08:12.517Z,81.23
2018-04-15T10:09:16.692Z,81.66
2018-04-15T10:10:20.927Z,81.70
2018-04-15T10:11:25.083Z,81.88
2018-04-15T10:12:29.418Z,82.39
2018-04-15T10:13:34.638Z,82.58
2018-04-15T10:14:39.742Z,82.74
2018-04-15T10:15:44.207Z,82.98
2018-04-15T10:16:48.754Z,82.64
2018-04-15T10:17:52.999Z,82.88
2018-04-15T10:18:57.186Z,82.70
2018-04-15T10:20:01.524Z,82.45
2018-04-15T10:21:05.714Z,82.11
2018-04-15T10:22:09.860Z,82.33
2018-04-15T10:23:14.351Z,81.65
2018-04-15T10:24:18.550Z,81.90
2018-04-15T10:25:22.840Z,81.42
2018-04-15T10:26:27.064Z,80.32
2018-04-15T10:27:31.363Z,79.47
2018-04-15T10:28:36.346Z,77.80
2018-04-15T10:29:40.877Z,77.94
2018-04-15T10:30:45.157Z,78.23
2018-04-15T10:31:49.489Z,77.95
2018-04-15T10:32:53.793Z,77.42
2018-04-15T10:33:57.959Z,77.03
2018-04-15T10:35:02.690Z,76.82
2018-04-15T10:36:06.867Z,76.00
2018-04-15T10:37:11.131Z,75.68
2018-04-15T10:38:15.355Z,75.74
2018-04-15T10:39:19.558Z,75.29
2018-04-15T10:40:23.721Z,74.52
2018-04-15T10:41:28.322Z,73.72
2018-04-15T10:42:32.503Z,73.44
2018-04-15T10:43:36.721Z,73.74
2018-04-15T10:44:41.950Z,73.88
2018-04-15T10:45:46.254Z,73.27
2018-04-15T10:46:50.574Z,73.27
2018-04-15T10:47:55.077Z,72.49
2018-04-15T10:48:59.274Z,72.80
2018-04-15T10:50:03.497Z,72.80
2018-04-15T10:51:07.769Z,73.03
2018-04-15T10:52:12.125Z,72.66
2018-04-15T10:53:16.336Z,71.71
2018-04-15T10:54:20.510Z,71.58
2018-04-15T10:55:24.787Z,71.59
2018-04-15T10:56:28.951Z,71.45
2018-04-15T10:57:33.107Z,71.30
2018-04-15T10:58:37.367Z,70.59
2018-04-15T10:59:41.878Z,70.61
2018-04-15T11:00:46.311Z,70.91
2018-04-15T11:01:50.872Z,67.29
2018-04-15T11:02:55.121Z,66.73
2018-04-15T11:03:59.360Z,67.02
2018-04-15T11:05:03.738Z,66.65
2018-04-15T11:06:08.087Z,66.57
2018-04-15T11:07:12.335Z,67.73
2018-04-15T11:08:16.532Z,68.35
2018-04-15T11:09:20.868Z,67.37
2018-04-15T11:10:25.089Z,67.43
2018-04-15T11:11:29.444Z,66.81
2018-04-15T11:12:33.657Z,64.91
2018-04-15T11:13:37.931Z,63.66
2018-04-15T11:14:42.145Z,62.45
2018-04-15T11:15:46.896Z,63.62
2018-04-15T11:16:51.394Z,64.43
2018-04-15T11:17:55.704Z,65.45
2018-04-15T11:18:59.965Z,66.42
2018-04-15T11:20:04.423Z,67.82
2018-04-15T11:21:08.639Z,67.51
2018-04-15T11:22:12.896Z,66.59
2018-04-15T11:23:17.348Z,66.64
2018-04-15T11:24:21.615Z,67.06
2018-04-15T11:25:25.783Z,67.37
2018-04-15T11:26:29.983Z,67.48
2018-04-15T11:27:34.149Z,68.70
2018-04-15T11:28:38.357Z,69.33
2018-04-15T11:29:42.953Z,70.58
2018-04-15T11:30:48.283Z,70.30
2018-04-15T11:31:53.118Z,69.99
2018-04-15T11:32:57.298Z,69.90
2018-04-15T11:34:01.575Z,70.44
2018-04-15T11:35:05.787Z,71.40
2018-04-15T11:36:09.967Z,72.08
2018-04-15T11:37:14.140Z,72.34
2018-04-15T11:38:18.360Z,72.10
2018-04-15T11:39:22.667Z,72.51
2018-04-15T11:40:26.903Z,72.69
2018-04-15T11:41:31.088Z,72.57
2018-04-15T11:42:35.570Z,73.71
2018-04-15T11:43:39.891Z,72.99
2018-04-15T11:44:44.247Z,73.73
2018-04-15T11:45:49.464Z,73.95
2018-04-15T11:46:54.510Z,73.69
2018-04-15T11:47:58.776Z,73.52
2018-04-15T11:49:03.184Z,73.58
2018-04-15T11:50:07.411Z,73.33
2018-04-15T11:51:11.650Z,72.83
2018-04-15T11:52:15.802Z,72.39
2018-04-15T11:53:20.188Z,72.34
2018-04-15T11:54:24.714Z,72.29
2018-04-15T11:55:28.937Z,72.20
2018-04-15T11:56:33.101Z,71.83
2018-04-15T11:57:37.521Z,72.45
2018-04-15T11:58:41.826Z,71.76
2018-04-15T11:59:46.769Z,71.87
2018-04-15T12:00:53.640Z,72.17
2018-04-15T12:01:58.632Z,72.32
2018-04-15T12:03:02.913Z,71.75
2018-04-15T12:04:07.247Z,71.72
2018-04-15T12:05:11.539Z,70.34
2018-04-15T12:06:15.855Z,68.37
2018-04-15T12:07:20.088Z,67.38
2018-04-15T12:08:24.332Z,67.56
2018-04-15T12:09:28.635Z,67.07
2018-04-15T12:10:32.929Z,67.73
2018-04-15T12:11:37.252Z,67.17
2018-04-15T12:12:41.485Z,66.53
2018-04-15T12:13:45.709Z,64.03
2018-04-15T12:14:50.171Z,64.68
2018-04-15T12:15:55.636Z,63.52
2018-04-15T12:16:59.907Z,62.67
2018-04-15T12:18:04.212Z,63.91
2018-04-15T12:19:08.802Z,64.04
2018-04-15T12:20:13.136Z,62.16
2018-04-15T12:21:17.404Z,61.04
2018-04-15T12:22:21.667Z,62.66
2018-04-15T12:23:25.969Z,62.73
2018-04-15T12:24:30.292Z,62.39
2018-04-15T12:25:34.855Z,61.94
2018-04-15T12:26:39.093Z,62.93
2018-04-15T12:27:43.340Z,63.28
2018-04-15T12:28:47.739Z,63.19
2018-04-15T12:29:52.050Z,62.59
2018-04-15T12:30:57.330Z,60.90
2018-04-15T12:32:01.525Z,60.64
2018-04-15T12:33:05.750Z,61.44
2018-04-15T12:34:10.046Z,60.32
2018-04-15T12:35:14.219Z,60.07
2018-04-15T12:36:19.561Z,59.79
2018-04-15T12:37:23.856Z,61.42
2018-04-15T12:38:28.104Z,60.65
2018-04-15T12:39:32.370Z,61.01
2018-04-15T12:40:36.572Z,61.48
2018-04-15T12:41:40.781Z,59.50
2018-04-15T12:42:44.962Z,60.08
2018-04-15T12:43:49.159Z,59.35
2018-04-15T12:44:54.255Z,59.97
2018-04-15T12:45:59.839Z,60.94
2018-04-15T12:47:04.411Z,59.40
2018-04-15T12:48:08.988Z,58.94
2018-04-15T12:49:13.156Z,58.95
2018-04-15T12:50:17.340Z,59.40
2018-04-15T12:51:21.620Z,59.93
2018-04-15T12:52:25.893Z,61.10
2018-04-15T12:53:30.085Z,60.63
2018-04-15T12:54:34.763Z,60.10
2018-04-15T12:55:39.121Z,60.96
2018-04-15T12:56:43.321Z,60.19
2018-04-15T12:57:47.525Z,59.23
2018-04-15T12:58:51.836Z,59.37
2018-04-15T12:59:56.099Z,58.57
2018-04-15T13:01:01.127Z,58.95
2018-04-15T13:02:05.489Z,58.72
2018-04-15T13:03:09.757Z,58.44
2018-04-15T13:04:14.874Z,59.91
2018-04-15T13:05:19.856Z,60.36
2018-04-15T13:06:24.129Z,62.14
2018-04-15T13:07:28.832Z,62.63
2018-04-15T13:08:33.038Z,62.86
2018-04-15T13:09:37.327Z,61.74
2018-04-15T13:10:41.546Z,61.45
2018-04-15T13:11:45.709Z,61.20
2018-04-15T13:12:50.177Z,61.83
2018-04-15T13:13:54.479Z,62.72
2018-04-15T13:14:58.895Z,63.88
2018-04-15T13:16:03.489Z,61.11
2018-04-15T13:17:07.662Z,58.31
2018-04-15T13:18:11.811Z,57.17
2018-04-15T13:19:17.000Z,55.81
2018-04-15T13:20:21.227Z,55.12
2018-04-15T13:21:25.645Z,54.21
2018-04-15T13:22:29.912Z,55.37
2018-04-15T13:23:34.243Z,56.08
2018-04-15T13:24:38.429Z,57.30
2018-04-15T13:25:42.835Z,57.68
2018-04-15T13:26:47.129Z,55.22
2018-04-15T13:27:51.373Z,51.75
2018-04-15T13:28:55.925Z,50.05
2018-04-15T13:30:00.323Z,48.12
2018-04-15T13:31:04.921Z,50.15
2018-04-15T13:32:09.256Z,50.93
2018-04-15T13:33:14.250Z,50.43
2018-04-15T13:34:18.690Z,49.66
2018-04-15T13:35:23.192Z,50.65
2018-04-15T13:36:27.591Z,52.03
2018-04-15T13:37:32.345Z,51.46
2018-04-15T13:38:36.876Z,50.94
2018-04-15T13:39:41.277Z,51.47
2018-04-15T13:40:45.604Z,53.14
2018-04-15T13:41:49.988Z,51.70
2018-04-15T13:42:54.664Z,50.48
2018-04-15T13:43:58.972Z,49.68
2018-04-15T13:45:04.634Z,51.34
2018-04-15T13:46:08.820Z,53.19
2018-04-15T13:47:13.444Z,54.63
2018-04-15T13:48:17.810Z,54.71
2018-04-15T13:49:22.045Z,53.23
2018-04-15T13:50:26.416Z,53.81
2018-04-15T13:51:31.477Z,54.02
2018-04-15T13:52:36.915Z,55.22
2018-04-15T13:53:41.206Z,56.35
2018-04-15T13:54:45.472Z,56.80
2018-04-15T13:55:49.757Z,56.12
2018-04-15T13:56:54.065Z,51.42